Time;durP1;ratioP1;P1;durP2;ratioP2;P2;SDS_P1;SDS_P2;PMS_P1;PMS_P2;Temp;Humidity;BMP_temperature;BMP_pressure;BME280_temperature;BME280_humidity;BME280_pressure;Samples;Min_cycle;Max_cycle;Signal;HPM_P1;HPM_P2
2022/03/18 00:00:27;;;;;;;43.78;22.67;;;;;;;3.52;80.92;100042.78;2607138;28;20076;-80
2022/03/18 00:01:58;;;;;;;;;;;;;;;3.51;81.43;100046.22;2607982;28;20057;-82
2022/03/18 00:03:14;;;;;;;41.47;21.90;;;;;;;3.60;81.00;100047.28;2606201;28;19963;-79
2022/03/18 00:04:30;;;;;;;44.55;22.88;;;;;;;3.62;80.99;100050.78;2606497;28;20498;-82
2022/03/18 00:05:46;;;;;;;46.13;23.15;;;;;;;3.62;81.36;100055.97;2606615;28;20124;-80
2022/03/18 00:07:02;;;;;;;43.97;23.80;;;;;;;3.62;81.53;100049.06;2607242;28;20053;-82
2022/03/18 00:08:17;;;;;;;48.08;25.45;;;;;;;3.65;82.08;100056.06;2607288;28;20135;-82
2022/03/18 00:09:33;;;;;;;46.15;26.25;;;;;;;3.63;81.95;100055.13;2606732;28;20045;-81
2022/03/18 00:10:49;;;;;;;50.35;25.75;;;;;;;3.61;81.77;100062.88;2607145;28;20476;-80
2022/03/18 00:12:06;;;;;;;54.00;26.73;;;;;;;3.61;82.18;100059.38;2606685;28;20052;-86
2022/03/18 00:13:22;;;;;;;52.75;26.75;;;;;;;3.57;82.33;100058.44;2607112;28;20049;-82
2022/03/18 00:14:41;;;;;;;50.45;25.58;;;;;;;3.53;82.84;100061.78;2606909;28;20045;-81
2022/03/18 00:15:57;;;;;;;54.42;26.58;;;;;;;3.51;82.93;100066.03;2606812;28;20052;-80
2022/03/18 00:17:12;;;;;;;48.70;26.00;;;;;;;3.49;82.61;100072.91;2606949;28;20049;-82
2022/03/18 00:18:28;;;;;;;50.40;25.42;;;;;;;3.46;82.70;100067.63;2607106;28;20073;-81
2022/03/18 00:19:43;;;;;;;44.63;25.45;;;;;;;3.44;82.54;100062.41;2606733;28;20557;-81
2022/03/18 00:20:59;;;;;;;49.58;25.42;;;;;;;3.42;82.42;100069.25;2606563;28;20049;-86
2022/03/18 00:22:15;;;;;;;46.03;24.05;;;;;;;3.44;82.22;100071.91;2606574;28;20075;-81
2022/03/18 00:23:31;;;;;;;47.20;24.45;;;;;;;3.46;82.11;100068.50;2606655;28;20418;-82
2022/03/18 00:24:47;;;;;;;44.35;24.52;;;;;;;3.47;82.12;100067.66;2606787;28;20472;-83
2022/03/18 00:26:02;;;;;;;52.42;26.38;;;;;;;3.48;82.35;100069.41;2605201;28;20684;-84
2022/03/18 00:27:18;;;;;;;46.05;25.38;;;;;;;3.47;82.29;100072.84;2606301;28;20049;-82
2022/03/18 00:28:34;;;;;;;46.80;25.30;;;;;;;3.47;82.02;100070.25;2606492;28;20061;-82
2022/03/18 00:29:49;;;;;;;49.85;24.70;;;;;;;3.43;82.19;100070.16;2606373;28;20053;-85
2022/03/18 00:31:06;;;;;;;45.97;23.63;;;;;;;3.44;82.36;100072.75;2606918;28;20056;-82
2022/03/18 00:32:23;;;;;;;44.42;24.45;;;;;;;3.45;82.18;100074.50;2606636;28;20063;-81
2022/03/18 00:33:38;;;;;;;44.92;24.42;;;;;;;3.43;81.96;100077.91;2606876;28;20072;-82
2022/03/18 00:34:54;;;;;;;46.13;23.77;;;;;;;3.37;82.04;100079.47;2606566;28;20503;-82
2022/03/18 00:36:09;;;;;;;46.78;25.02;;;;;;;3.41;82.29;100071.78;2606449;28;20053;-81
2022/03/18 00:37:25;;;;;;;49.00;24.65;;;;;;;3.41;82.14;100082.16;2606773;28;20080;-81
2022/03/18 00:38:41;;;;;;;51.03;25.05;;;;;;;3.38;81.89;100081.22;2606723;28;20041;-81
2022/03/18 00:39:56;;;;;;;50.33;25.45;;;;;;;3.37;82.13;100084.66;2606514;28;20222;-81
2022/03/18 00:41:12;;;;;;;48.35;25.73;;;;;;;3.36;82.33;100085.50;2606038;28;20479;-86
2022/03/18 00:42:28;;;;;;;47.35;24.95;;;;;;;3.35;82.30;100082.84;2607016;28;20079;-82
2022/03/18 00:43:44;;;;;;;44.60;23.77;;;;;;;3.33;82.16;100087.13;2606649;28;20068;-82
2022/03/18 00:45:00;;;;;;;43.75;23.92;;;;;;;3.32;82.04;100086.25;2605826;28;20057;-81
2022/03/18 00:46:16;;;;;;;47.20;24.33;;;;;;;3.29;82.61;100086.19;2606254;28;20106;-82
2022/03/18 00:52:15;;;;;;;45.05;24.05;;;;;;;3.14;83.07;100086.59;2606728;28;20056;-81
2022/03/18 00:53:31;;;;;;;47.70;23.77;;;;;;;3.15;83.28;100088.34;2607043;28;20432;-80
2022/03/18 00:54:46;;;;;;;44.38;23.73;;;;;;;3.15;83.14;100087.50;2606622;28;20415;-80
2022/03/18 00:56:02;;;;;;;45.25;24.42;;;;;;;3.16;82.69;100091.84;2606497;28;20492;-81
2022/03/18 00:57:17;;;;;;;45.28;24.48;;;;;;;3.14;83.37;100086.59;2606533;28;20648;-81
2022/03/18 00:58:33;;;;;;;44.15;23.33;;;;;;;3.09;83.28;100085.59;2606541;28;20052;-81
2022/03/18 00:59:49;;;;;;;44.50;23.55;;;;;;;3.08;83.37;100089.03;2607084;28;20435;-83
2022/03/18 01:01:04;;;;;;;47.05;23.88;;;;;;;3.06;83.34;100099.31;2606593;28;20049;-81
2022/03/18 01:02:20;;;;;;;48.45;26.23;;;;;;;3.03;83.94;100098.34;2606754;28;20565;-80
2022/03/18 01:03:35;;;;;;;48.85;26.60;;;;;;;2.99;83.91;100089.59;2606733;28;20048;-85
2022/03/18 01:04:51;;;;;;;48.53;25.63;;;;;;;3.04;84.13;100101.00;2606882;28;20069;-82
2022/03/18 01:06:06;;;;;;;45.00;24.77;;;;;;;3.04;83.89;100100.09;2606367;28;20444;-81
2022/03/18 01:07:22;;;;;;;47.10;25.40;;;;;;;3.10;84.03;100097.72;2606704;28;20063;-81
2022/03/18 01:08:38;;;;;;;48.50;25.83;;;;;;;3.11;83.90;100094.28;2606476;28;20062;-81
2022/03/18 01:09:53;;;;;;;43.80;24.02;;;;;;;3.12;83.50;100096.03;2606512;28;20527;-81
2022/03/18 01:11:09;;;;;;;46.58;24.27;;;;;;;3.15;83.18;100101.28;2606240;28;20114;-82
2022/03/18 01:12:25;;;;;;;44.92;23.58;;;;;;;3.14;82.95;100101.25;2606660;28;20057;-86
2022/03/18 01:13:41;;;;;;;45.40;24.27;;;;;;;3.11;83.50;100092.56;2606253;28;20618;-82
2022/03/18 01:14:57;;;;;;;45.55;24.48;;;;;;;3.12;83.13;100096.03;2606341;28;20140;-82
2022/03/18 01:16:13;;;;;;;46.25;24.65;;;;;;;3.11;83.05;100091.69;2606003;28;20068;-80
2022/03/18 01:17:28;;;;;;;47.75;23.80;;;;;;;3.10;83.30;100098.56;2606658;28;20483;-80
2022/03/18 01:18:44;;;;;;;47.70;25.42;;;;;;;3.11;83.05;100096.88;2606809;28;20106;-83
2022/03/18 01:20:00;;;;;;;49.08;24.60;;;;;;;3.11;82.85;100097.75;2606319;28;20084;-81
2022/03/18 01:21:15;;;;;;;45.42;23.35;;;;;;;3.14;82.94;100096.06;2606630;28;20053;-81
2022/03/18 01:22:31;;;;;;;43.50;23.40;;;;;;;3.13;82.83;100097.78;2606396;28;20049;-81
2022/03/18 01:23:46;;;;;;;44.15;23.13;;;;;;;3.13;83.03;100099.50;2606189;28;20080;-83
2022/03/18 01:25:02;;;;;;;47.55;25.17;;;;;;;3.11;83.37;100097.75;2606755;28;20052;-81
2022/03/18 01:26:18;;;;;;;51.85;26.30;;;;;;;3.08;83.66;100099.38;2606661;28;20159;-81
2022/03/18 01:27:33;;;;;;;50.65;25.73;;;;;;;3.08;83.78;100104.56;2606429;28;20544;-80
2022/03/18 01:28:49;;;;;;;45.10;24.58;;;;;;;3.07;83.29;100105.34;2606727;28;20498;-81
2022/03/18 01:30:05;;;;;;;47.83;25.02;;;;;;;3.04;83.33;100106.16;2606312;28;20052;-80
2022/03/18 01:31:21;;;;;;;47.33;24.75;;;;;;;3.05;83.18;100107.03;2606080;28;20608;-81
2022/03/18 01:32:37;;;;;;;48.28;25.02;;;;;;;3.05;83.11;100110.50;2606181;28;20049;-85
2022/03/18 01:33:53;;;;;;;47.17;25.17;;;;;;;3.07;83.06;100106.25;2606293;28;20064;-83
2022/03/18 01:35:10;;;;;;;48.95;25.27;;;;;;;3.06;83.08;100104.50;2606282;28;20407;-80
2022/03/18 01:36:25;;;;;;;45.55;24.98;;;;;;;3.08;83.19;100107.16;2606437;28;20049;-81
2022/03/18 01:37:41;;;;;;;47.22;25.05;;;;;;;3.05;83.40;100110.50;2606582;28;20487;-81
2022/03/18 01:38:56;;;;;;;43.53;23.27;;;;;;;3.01;83.44;100108.69;2608434;28;20118;-82
2022/03/18 01:40:13;;;;;;;46.78;23.48;;;;;;;3.01;83.31;100110.38;2608689;28;20060;-81
2022/03/18 01:41:28;;;;;;;43.80;23.52;;;;;;;2.99;83.09;100106.88;2608111;28;20041;-80
2022/03/18 01:42:44;;;;;;;44.97;24.00;;;;;;;2.94;83.09;100112.78;2608673;28;20224;-80
2022/03/18 01:44:00;;;;;;;41.55;23.95;;;;;;;2.87;82.98;100107.38;2608369;28;20080;-81
2022/03/18 01:45:16;;;;;;;43.30;22.50;;;;;;;2.84;83.10;100105.56;2608394;28;20061;-81
2022/03/18 01:46:31;;;;;;;43.55;22.52;;;;;;;2.83;82.59;100112.44;2608178;28;20151;-86
2022/03/18 01:47:47;;;;;;;45.55;22.67;;;;;;;2.81;83.64;100105.47;2608648;28;20123;-81
2022/03/18 01:49:03;;;;;;;46.58;25.23;;;;;;;2.81;83.91;100108.06;2608583;28;20045;-82
2022/03/18 01:50:19;;;;;;;50.78;24.60;;;;;;;2.76;84.20;100114.78;2608626;28;20076;-81
2022/03/18 01:51:35;;;;;;;51.50;25.17;;;;;;;2.75;84.53;100110.44;2607850;28;20060;-84
2022/03/18 01:52:50;;;;;;;51.03;25.85;;;;;;;2.70;84.84;100105.13;2607740;28;20049;-83
2022/03/18 01:55:41;;;;;;;50.38;26.38;;;;;;;2.73;85.12;100107.84;2608208;28;20049;-81
2022/03/18 01:56:56;;;;;;;56.00;27.08;;;;;;;2.74;84.74;100113.88;2607625;28;20107;-82
2022/03/18 01:58:12;;;;;;;50.35;25.02;;;;;;;2.73;85.07;100117.28;2608077;28;20053;-82
2022/03/18 01:59:27;;;;;;;51.95;26.35;;;;;;;2.74;84.97;100119.03;2608144;28;20045;-81
2022/03/18 02:00:43;;;;;;;55.05;26.85;;;;;;;2.80;84.96;100119.25;2607662;28;20049;-81
2022/03/18 02:01:59;;;;;;;50.45;24.80;;;;;;;2.83;85.00;100119.34;2608365;28;20052;-81
2022/03/18 02:03:15;;;;;;;52.38;25.65;;;;;;;2.87;84.32;100128.94;2607867;28;20045;-81
2022/03/18 02:04:35;;;;;;;52.35;26.45;;;;;;;2.89;84.84;100124.69;2608110;28;20759;-82
2022/03/18 02:05:50;;;;;;;52.30;26.48;;;;;;;2.91;84.87;100127.34;2608132;28;20053;-81
2022/03/18 02:07:06;;;;;;;52.40;25.33;;;;;;;2.93;84.56;100131.72;2608127;28;20045;-81
2022/03/18 02:08:22;;;;;;;53.97;25.08;;;;;;;2.92;84.64;100134.25;2608239;28;20063;-81
2022/03/18 02:09:39;;;;;;;49.22;25.88;;;;;;;2.90;84.87;100133.34;2607784;28;20479;-81
2022/03/18 02:10:55;;;;;;;51.65;25.65;;;;;;;2.86;84.60;100131.47;2608042;28;20084;-82
2022/03/18 02:12:11;;;;;;;52.80;27.23;;;;;;;2.90;84.58;100133.34;2608452;28;20053;-81
2022/03/18 02:13:27;;;;;;;51.30;27.15;;;;;;;2.92;84.42;100135.13;2608236;28;20049;-83
2022/03/18 02:14:46;;;;;;;49.78;25.10;;;;;;;2.87;84.34;100144.47;2607941;28;20053;-81
2022/03/18 02:16:03;;;;;;;49.28;25.55;;;;;;;2.82;84.18;100140.88;2607647;28;20075;-81
2022/03/18 02:17:18;;;;;;;51.58;25.13;;;;;;;2.82;84.38;100141.72;2608349;28;20143;-81
2022/03/18 02:18:34;;;;;;;59.20;27.33;;;;;;;2.81;84.51;100145.16;2607835;28;20041;-81
2022/03/18 02:19:50;;;;;;;51.95;26.23;;;;;;;2.83;84.36;100145.22;2608449;28;20079;-81
2022/03/18 02:21:05;;;;;;;48.78;25.52;;;;;;;2.85;84.42;100145.22;2608033;28;20510;-84
2022/03/18 02:22:23;;;;;;;52.33;27.70;;;;;;;2.85;84.31;100151.31;2608004;28;20049;-81
2022/03/18 02:23:39;;;;;;;52.78;26.85;;;;;;;2.84;84.29;100149.56;2608328;28;20123;-81
2022/03/18 02:24:55;;;;;;;50.90;26.88;;;;;;;2.85;84.37;100153.88;2608157;28;20624;-84
2022/03/18 02:26:15;;;;;;;49.80;26.83;;;;;;;2.84;84.42;100149.56;2608194;28;20049;-81
2022/03/18 02:27:30;;;;;;;51.40;25.63;;;;;;;2.84;84.28;100154.72;2609834;28;20084;-81
2022/03/18 02:28:46;;;;;;;51.58;26.10;;;;;;;2.84;84.33;100159.91;2609604;28;20048;-81
2022/03/18 02:30:06;;;;;;;49.13;25.48;;;;;;;2.85;84.13;100156.47;2609443;28;20906;-86
2022/03/18 02:31:21;;;;;;;44.58;24.52;;;;;;;2.84;84.02;100152.13;2609412;28;20052;-83
2022/03/18 02:32:38;;;;;;;50.60;25.17;;;;;;;2.85;83.91;100148.72;2607865;28;20049;-84
2022/03/18 02:33:53;;;;;;;54.42;26.67;;;;;;;2.81;84.35;100150.31;2607617;28;20092;-81
2022/03/18 02:35:09;;;;;;;48.40;25.70;;;;;;;2.77;84.51;100156.25;2607907;28;20049;-82
2022/03/18 02:36:25;;;;;;;51.22;25.73;;;;;;;2.74;84.54;100156.16;2607220;28;20053;-84
2022/03/18 02:37:40;;;;;;;45.95;25.05;;;;;;;2.72;84.49;100156.91;2607306;28;20064;-83
2022/03/18 02:38:56;;;;;;;49.72;26.10;;;;;;;2.67;84.90;100157.66;2607598;28;20127;-81
2022/03/18 02:40:12;;;;;;;48.00;25.73;;;;;;;2.68;84.84;100162.00;2607786;28;20557;-81
2022/03/18 02:41:28;;;;;;;53.15;27.63;;;;;;;2.66;84.98;100160.19;2607491;28;20045;-82
2022/03/18 02:42:44;;;;;;;50.97;27.52;;;;;;;2.64;85.11;100162.72;2607933;28;20045;-82
2022/03/18 02:44:00;;;;;;;51.83;27.75;;;;;;;2.64;84.62;100165.28;2607976;28;20621;-81
2022/03/18 02:45:15;;;;;;;49.45;26.73;;;;;;;2.66;84.57;100166.25;2608197;28;20067;-82
2022/03/18 02:46:32;;;;;;;51.65;27.10;;;;;;;2.64;84.63;100159.25;2607552;28;20053;-81
2022/03/18 02:47:48;;;;;;;51.95;27.42;;;;;;;2.64;85.00;100162.72;2607549;28;20445;-81
2022/03/18 02:49:04;;;;;;;50.97;25.42;;;;;;;2.63;85.40;100166.13;2606362;28;20068;-81
2022/03/18 02:50:20;;;;;;;49.65;27.08;;;;;;;2.62;85.19;100166.97;2606900;28;20057;-82
2022/03/18 02:51:37;;;;;;;52.05;27.27;;;;;;;2.62;84.91;100164.38;2607648;28;20107;-87
2022/03/18 02:52:53;;;;;;;55.97;28.00;;;;;;;2.64;85.02;100161.84;2607813;28;20100;-81
2022/03/18 02:54:09;;;;;;;50.72;26.45;;;;;;;2.66;85.20;100166.25;2607487;28;20049;-81
2022/03/18 02:55:26;;;;;;;53.88;27.05;;;;;;;2.68;85.23;100167.19;2607675;28;20483;-82
2022/03/18 02:56:42;;;;;;;50.28;26.60;;;;;;;2.68;85.54;100167.19;2607707;28;20098;-81
2022/03/18 02:57:57;;;;;;;50.53;26.00;;;;;;;2.67;84.99;100162.84;2607626;28;20049;-81
2022/03/18 02:59:13;;;;;;;46.15;24.50;;;;;;;2.66;85.07;100168.84;2607687;28;20048;-81
2022/03/18 03:00:29;;;;;;;51.95;26.75;;;;;;;2.65;85.03;100173.94;2608217;28;20056;-82
2022/03/18 03:01:45;;;;;;;48.75;25.00;;;;;;;2.58;85.05;100174.56;2607353;28;20060;-82
2022/03/18 03:03:01;;;;;;;48.53;24.85;;;;;;;2.52;85.00;100173.56;2607652;28;20320;-81
2022/03/18 03:04:17;;;;;;;48.15;24.83;;;;;;;2.46;85.03;100175.94;2607884;28;20053;-81
2022/03/18 03:08:41;;;;;;;53.92;26.25;;;;;;;2.40;85.73;100175.72;2607535;28;20052;-82
2022/03/18 03:09:58;;;;;;;49.75;25.42;;;;;;;2.45;85.42;100181.06;2607822;28;20475;-81
2022/03/18 03:11:13;;;;;;;53.05;26.35;;;;;;;2.45;85.44;100183.63;2607395;28;20442;-84
2022/03/18 03:12:29;;;;;;;51.85;26.00;;;;;;;2.45;85.70;100186.22;2607305;28;20053;-81
2022/03/18 03:13:44;;;;;;;55.65;27.42;;;;;;;2.41;86.22;100182.66;2607680;28;20423;-84
2022/03/18 03:15:00;;;;;;;56.17;26.45;;;;;;;2.44;86.38;100184.47;2607727;28;20159;-84
2022/03/18 03:16:15;;;;;;;55.70;26.25;;;;;;;2.44;86.32;100181.88;2607702;28;20056;-81
2022/03/18 03:17:31;;;;;;;53.53;26.63;;;;;;;2.46;85.97;100187.97;2607776;28;20071;-81
2022/03/18 03:18:47;;;;;;;57.75;27.75;;;;;;;2.44;85.93;100187.91;2607696;28;20801;-81
2022/03/18 03:20:03;;;;;;;54.03;26.63;;;;;;;2.49;86.06;100191.56;2607777;28;20051;-81
2022/03/18 03:21:19;;;;;;;55.47;27.13;;;;;;;2.40;85.75;100197.31;2607587;28;20059;-83
2022/03/18 03:22:35;;;;;;;49.20;25.73;;;;;;;2.41;85.93;100195.56;2607632;28;20057;-81
2022/03/18 03:23:50;;;;;;;50.75;25.88;;;;;;;2.42;85.83;100193.88;2607449;28;20152;-82
2022/03/18 03:25:06;;;;;;;52.28;25.90;;;;;;;2.45;85.56;100199.16;2607506;28;20049;-82
2022/03/18 03:26:22;;;;;;;50.53;25.30;;;;;;;2.46;85.63;100195.72;2607794;28;20044;-81
2022/03/18 03:27:38;;;;;;;53.10;24.23;;;;;;;2.47;85.66;100192.31;2607743;28;20081;-84
2022/03/18 03:28:54;;;;;;;48.47;25.60;;;;;;;2.46;85.53;100199.22;2607631;28;20049;-82
2022/03/18 03:30:10;;;;;;;51.05;25.27;;;;;;;2.45;85.63;100196.56;2607284;28;20616;-81
2022/03/18 03:31:26;;;;;;;53.47;25.80;;;;;;;2.46;85.71;100198.31;2607193;28;20103;-81
2022/03/18 03:32:41;;;;;;;48.20;25.58;;;;;;;2.57;85.99;100201.25;2607809;28;20052;-82
2022/03/18 03:33:57;;;;;;;51.10;27.38;;;;;;;2.58;86.16;100206.50;2607669;28;20052;-81
2022/03/18 03:35:15;;;;;;;52.33;27.20;;;;;;;2.56;86.02;100204.66;2607537;28;20045;-81
2022/03/18 03:36:30;;;;;;;49.38;25.40;;;;;;;2.53;85.64;100214.09;2607291;28;20053;-81
2022/03/18 03:37:46;;;;;;;49.45;26.90;;;;;;;2.49;85.87;100214.81;2607826;28;20045;-80
2022/03/18 03:39:02;;;;;;;53.55;25.58;;;;;;;2.45;85.92;100212.97;2607381;28;20051;-81
2022/03/18 03:40:19;;;;;;;51.47;26.48;;;;;;;2.46;86.33;100219.00;2607543;28;20053;-81
2022/03/18 03:41:35;;;;;;;51.38;27.05;;;;;;;2.45;85.86;100217.25;2607164;28;20041;-81
2022/03/18 03:42:52;;;;;;;47.42;25.77;;;;;;;2.47;86.47;100223.34;2607744;28;20062;-81
2022/03/18 03:44:07;;;;;;;47.45;25.50;;;;;;;2.47;86.00;100218.19;2607481;28;20450;-80
2022/03/18 03:45:23;;;;;;;44.13;24.42;;;;;;;2.47;85.70;100220.75;2607416;28;20462;-81
2022/03/18 03:46:39;;;;;;;48.65;23.80;;;;;;;2.45;85.52;100217.25;2606902;28;20059;-81
2022/03/18 03:47:55;;;;;;;48.28;25.25;;;;;;;2.42;85.62;100224.91;2606599;28;20041;-81
2022/03/18 03:49:11;;;;;;;55.00;28.70;;;;;;;2.40;85.99;100224.84;2607580;28;20060;-80
2022/03/18 03:50:27;;;;;;;52.05;26.33;;;;;;;2.38;86.31;100227.41;2607140;28;20053;-84
2022/03/18 03:51:43;;;;;;;51.45;26.63;;;;;;;2.36;86.34;100231.59;2607154;28;20411;-83
2022/03/18 03:52:59;;;;;;;51.97;25.75;;;;;;;2.36;86.27;100233.31;2607327;28;20053;-80
2022/03/18 03:54:14;;;;;;;50.20;26.08;;;;;;;2.37;85.93;100238.53;2607444;28;20045;-83
2022/03/18 03:55:30;;;;;;;49.05;25.48;;;;;;;2.40;85.63;100235.19;2607182;28;20569;-80
2022/03/18 03:56:45;;;;;;;47.60;24.95;;;;;;;2.40;85.56;100233.50;2607249;28;20045;-80
2022/03/18 03:58:01;;;;;;;47.83;24.98;;;;;;;2.38;85.83;100234.25;2606915;28;20068;-80
2022/03/18 03:59:17;;;;;;;49.25;25.08;;;;;;;2.37;85.82;100229.91;2607075;28;20487;-83
2022/03/18 04:00:33;;;;;;;46.78;24.85;;;;;;;2.33;86.08;100230.66;2605870;28;20106;-82
2022/03/18 04:01:48;;;;;;;50.60;25.00;;;;;;;2.34;86.03;100235.00;2606671;28;20966;-83
2022/03/18 04:03:05;;;;;;;50.08;25.45;;;;;;;2.35;85.82;100232.44;2607103;28;20057;-81
2022/03/18 04:04:20;;;;;;;49.13;25.85;;;;;;;2.36;85.82;100238.50;2607215;28;20045;-81
2022/03/18 04:05:38;;;;;;;49.88;26.05;;;;;;;2.32;85.96;100237.50;2606923;28;20052;-82
2022/03/18 04:06:53;;;;;;;49.15;26.77;;;;;;;2.34;86.26;100246.19;2606928;28;20106;-81
2022/03/18 04:08:09;;;;;;;48.88;24.83;;;;;;;2.50;86.13;100246.72;2607110;28;20099;-80
2022/03/18 04:09:25;;;;;;;51.58;26.73;;;;;;;2.50;86.29;100244.13;2606871;28;20045;-81
2022/03/18 04:10:42;;;;;;;53.58;26.48;;;;;;;2.48;86.51;100241.50;2606872;28;20071;-82
2022/03/18 04:11:57;;;;;;;49.83;25.52;;;;;;;2.52;86.05;100250.25;2606932;28;20053;-81
2022/03/18 04:13:13;;;;;;;53.85;25.58;;;;;;;2.64;85.54;100247.19;2606649;28;20055;-81
2022/03/18 04:14:29;;;;;;;49.03;25.20;;;;;;;2.71;85.04;100248.28;2606677;28;20056;-80
2022/03/18 04:15:44;;;;;;;45.63;23.30;;;;;;;2.83;84.72;100246.09;2606661;28;20392;-81
2022/03/18 04:17:02;;;;;;;44.15;22.52;;;;;;;2.92;84.33;100253.28;2606839;28;20064;-81
2022/03/18 04:18:18;;;;;;;43.67;21.58;;;;;;;2.95;84.11;100251.66;2606793;28;20045;-81
2022/03/18 04:19:33;;;;;;;44.40;22.25;;;;;;;3.00;83.78;100249.19;2606703;28;20060;-80
2022/03/18 04:20:49;;;;;;;45.53;23.08;;;;;;;3.01;83.79;100253.56;2606674;28;20407;-80
2022/03/18 04:22:06;;;;;;;41.75;21.95;;;;;;;3.06;83.54;100253.69;2606646;28;20470;-87
2022/03/18 04:23:21;;;;;;;47.33;23.30;;;;;;;3.09;83.05;100259.00;2605952;28;20041;-82
2022/03/18 04:24:37;;;;;;;45.33;24.10;;;;;;;2.96;83.21;100255.13;2606455;28;20045;-82
2022/03/18 04:25:53;;;;;;;47.90;23.45;;;;;;;2.99;83.66;100265.56;2606923;28;20052;-81
2022/03/18 04:27:08;;;;;;;47.03;24.30;;;;;;;3.01;83.35;100261.34;2606961;28;20049;-82
2022/03/18 04:28:24;;;;;;;45.85;22.63;;;;;;;3.02;83.42;100260.50;2607271;28;20052;-81
2022/03/18 04:29:39;;;;;;;46.55;24.05;;;;;;;2.91;83.39;100260.13;2606948;28;20510;-85
2022/03/18 04:30:55;;;;;;;43.90;22.83;;;;;;;2.87;83.38;100268.63;2607006;28;20060;-83
2022/03/18 04:32:11;;;;;;;46.85;21.75;;;;;;;2.81;83.58;100256.38;2606963;28;20059;-81
2022/03/18 04:33:27;;;;;;;42.50;22.58;;;;;;;2.80;83.60;100261.53;2606681;28;20048;-81
2022/03/18 04:34:43;;;;;;;50.47;22.98;;;;;;;2.77;83.73;100267.47;2606607;28;20056;-81
2022/03/18 04:35:58;;;;;;;51.55;24.60;;;;;;;2.72;84.04;100268.13;2606456;28;20063;-82
2022/03/18 04:37:14;;;;;;;47.47;24.65;;;;;;;2.66;84.83;100279.16;2604679;28;20053;-80
2022/03/18 04:38:30;;;;;;;45.63;23.00;;;;;;;2.70;84.60;100283.59;2606350;28;20049;-80
2022/03/18 04:39:45;;;;;;;48.00;25.02;;;;;;;2.76;84.67;100276.06;2606514;28;20052;-80
2022/03/18 04:41:00;;;;;;;45.20;23.38;;;;;;;2.75;84.43;100284.66;2606711;28;20053;-83
2022/03/18 04:42:16;;;;;;;43.78;23.20;;;;;;;2.74;84.26;100276.81;2606015;28;20045;-82
2022/03/18 04:43:32;;;;;;;46.13;23.08;;;;;;;2.80;83.88;100287.38;2606317;28;20052;-81
2022/03/18 04:44:48;;;;;;;46.83;23.80;;;;;;;2.83;83.72;100282.31;2606136;28;20044;-81
2022/03/18 04:46:03;;;;;;;47.03;23.52;;;;;;;2.94;83.39;100285.25;2606296;28;20095;-80
2022/03/18 04:47:19;;;;;;;50.80;24.42;;;;;;;2.89;83.25;100285.09;2606309;28;21346;-81
2022/03/18 04:48:35;;;;;;;50.97;25.35;;;;;;;2.89;83.17;100285.09;2606391;28;20048;-81
2022/03/18 04:49:50;;;;;;;55.40;26.60;;;;;;;2.98;82.77;100292.25;2605636;28;20049;-81
2022/03/18 04:51:06;;;;;;;58.75;28.38;;;;;;;2.94;82.87;100296.50;2606210;28;20365;-81
2022/03/18 04:52:21;;;;;;;56.50;28.48;;;;;;;2.94;82.73;100290.41;2606505;28;20964;-87
2022/03/18 04:53:40;;;;;;;53.63;28.30;;;;;;;2.85;82.80;100293.59;2606400;28;20055;-82
2022/03/18 04:54:56;;;;;;;52.78;26.17;;;;;;;2.74;82.94;100293.22;2606441;28;20096;-81
2022/03/18 04:57:15;;;;;;;53.05;27.52;;;;;;;2.64;83.27;100299.78;2606605;28;20063;-82
2022/03/18 04:57:50;;;;;;;49.33;25.33;;;;;;;2.52;84.02;100296.78;2606068;28;20527;-82
2022/03/18 04:59:06;;;;;;;57.83;27.60;;;;;;;2.47;83.79;100301.81;2606520;28;20071;-81
2022/03/18 05:00:24;;;;;;;57.50;28.63;;;;;;;2.44;84.05;100299.09;2606369;28;20430;-82
2022/03/18 05:01:40;;;;;;;72.57;34.80;;;;;;;2.43;84.30;100307.66;2606113;28;20068;-80
2022/03/18 05:02:55;;;;;;;64.53;32.90;;;;;;;2.47;84.53;100308.66;2606246;28;20045;-80
2022/03/18 05:04:11;;;;;;;63.95;31.80;;;;;;;2.46;84.30;100312.06;2605889;28;20045;-81
2022/03/18 05:05:27;;;;;;;66.13;31.60;;;;;;;2.42;84.21;100310.22;2606357;28;20126;-81
2022/03/18 05:06:42;;;;;;;62.40;32.75;;;;;;;2.39;84.29;100310.97;2606223;28;20049;-81
2022/03/18 05:07:58;;;;;;;62.60;32.08;;;;;;;2.35;84.49;100307.41;2606000;28;20049;-81
2022/03/18 05:09:14;;;;;;;67.55;32.25;;;;;;;2.33;84.31;100313.34;2605685;28;20766;-80
2022/03/18 05:10:30;;;;;;;69.13;33.38;;;;;;;2.30;84.48;100314.13;2605497;28;20479;-82
2022/03/18 05:11:45;;;;;;;63.05;30.70;;;;;;;2.26;84.67;100317.44;2605302;28;20060;-81
2022/03/18 05:13:01;;;;;;;59.45;28.42;;;;;;;2.20;84.66;100317.19;2605591;28;20052;-80
2022/03/18 05:14:17;;;;;;;56.85;27.77;;;;;;;2.16;84.95;100318.78;2606076;28;20068;-81
2022/03/18 05:15:32;;;;;;;55.00;28.30;;;;;;;2.11;85.04;100320.31;2604872;28;20548;-81
2022/03/18 05:16:49;;;;;;;57.15;28.13;;;;;;;2.06;85.68;100333.06;2606144;28;20135;-85
2022/03/18 05:18:04;;;;;;;60.13;29.48;;;;;;;2.02;85.64;100327.72;2606341;28;20241;-83
2022/03/18 05:19:20;;;;;;;57.55;29.05;;;;;;;2.03;85.48;100332.09;2606342;28;20289;-81
2022/03/18 05:20:35;;;;;;;57.35;29.00;;;;;;;2.02;85.73;100330.31;2606654;28;20053;-81
2022/03/18 05:21:51;;;;;;;55.97;28.63;;;;;;;2.02;85.81;100331.19;2606112;28;20430;-81
2022/03/18 05:23:06;;;;;;;55.53;28.77;;;;;;;1.99;85.40;100331.09;2605991;28;20045;-80
2022/03/18 05:24:22;;;;;;;65.13;32.15;;;;;;;1.96;85.37;100333.56;2606733;28;20119;-80
2022/03/18 05:25:40;;;;;;;65.63;32.00;;;;;;;1.93;85.58;100330.84;2606478;28;20063;-85
2022/03/18 05:26:57;;;;;;;61.45;31.88;;;;;;;1.93;85.31;100331.75;2606624;28;20462;-80
2022/03/18 05:28:13;;;;;;;62.20;31.35;;;;;;;1.93;85.19;100334.31;2606807;28;20533;-81
2022/03/18 05:29:29;;;;;;;64.03;30.42;;;;;;;1.88;85.38;100337.56;2606259;28;20085;-81
2022/03/18 05:30:45;;;;;;;58.70;30.42;;;;;;;1.90;85.16;100335.91;2606716;28;20049;-80
2022/03/18 05:32:01;;;;;;;62.28;30.42;;;;;;;1.90;85.38;100336.81;2606370;28;20581;-80
2022/03/18 05:33:19;;;;;;;62.08;30.38;;;;;;;1.90;85.11;100339.38;2606735;28;20529;-80
2022/03/18 05:34:35;;;;;;;61.85;30.98;;;;;;;1.90;85.05;100346.22;2607274;28;20586;-84
2022/03/18 05:35:50;;;;;;;61.22;29.05;;;;;;;1.86;85.04;100344.38;2607180;28;20082;-80
2022/03/18 05:37:06;;;;;;;57.75;30.20;;;;;;;1.86;85.07;100346.94;2606472;28;20056;-80
2022/03/18 05:38:22;;;;;;;62.55;30.70;;;;;;;1.82;85.00;100348.53;2606263;28;20053;-81
2022/03/18 05:39:38;;;;;;;64.95;30.25;;;;;;;1.79;85.11;100351.00;2606233;28;20498;-82
2022/03/18 05:40:53;;;;;;;65.88;30.38;;;;;;;1.78;85.71;100349.25;2605364;28;20037;-81
2022/03/18 05:42:09;;;;;;;60.28;29.83;;;;;;;1.81;85.79;100352.78;2606246;28;20041;-80
2022/03/18 05:43:24;;;;;;;63.78;30.95;;;;;;;1.82;85.77;100349.41;2606492;28;20041;-80
2022/03/18 05:44:40;;;;;;;60.30;29.58;;;;;;;1.81;86.11;100360.53;2606062;28;20071;-84
2022/03/18 05:45:56;;;;;;;66.60;32.80;;;;;;;1.83;86.19;100356.34;2606168;28;20495;-82
2022/03/18 05:47:11;;;;;;;60.67;31.63;;;;;;;1.87;85.95;100359.03;2606190;28;20526;-81
2022/03/18 05:48:27;;;;;;;61.08;29.45;;;;;;;1.89;85.60;100349.66;2606346;28;20451;-81
2022/03/18 05:49:44;;;;;;;62.58;29.98;;;;;;;1.87;85.78;100362.47;2605904;28;20098;-81
2022/03/18 05:51:03;;;;;;;60.72;30.20;;;;;;;1.90;85.69;100365.22;2605897;28;20052;-81
2022/03/18 05:52:19;;;;;;;56.30;28.85;;;;;;;1.95;85.42;100376.59;2606273;28;20053;-82
2022/03/18 05:53:34;;;;;;;60.22;28.98;;;;;;;1.98;85.22;100378.41;2606192;28;20422;-81
2022/03/18 05:54:50;;;;;;;60.13;30.70;;;;;;;2.01;85.47;100375.06;2606313;28;20131;-81
2022/03/18 05:57:40;;;;;;;61.45;30.92;;;;;;;2.06;85.85;100373.53;2606258;28;20309;-81
2022/03/18 05:58:56;;;;;;;61.17;29.85;;;;;;;2.09;85.45;100371.94;2606207;28;20091;-82
2022/03/18 06:00:14;;;;;;;64.80;30.25;;;;;;;2.13;85.39;100372.94;2606122;28;20057;-80